createdAt,value
2019-02-07T00:00:48.949Z,943.44
2019-02-07T00:01:56.981Z,943.35
2019-02-07T00:03:05.030Z,943.36
2019-02-07T00:04:13.083Z,943.31
2019-02-07T00:05:21.172Z,943.34
2019-02-07T00:06:29.198Z,943.29
2019-02-07T00:07:37.351Z,943.30
2019-02-07T00:08:45.313Z,943.31
2019-02-07T00:09:53.421Z,943.31
2019-02-07T00:11:01.389Z,943.24
2019-02-07T00:12:09.456Z,943.27
2019-02-07T00:13:17.510Z,943.20
2019-02-07T00:14:25.680Z,943.25
2019-02-07T00:15:36.356Z,943.23
2019-02-07T00:16:41.658Z,943.19
2019-02-07T00:17:49.718Z,943.14
2019-02-07T00:18:57.792Z,943.18
2019-02-07T00:20:05.885Z,943.16
2019-02-07T00:21:13.896Z,943.14
2019-02-07T00:22:21.933Z,943.14
2019-02-07T00:23:30.099Z,943.14
2019-02-07T00:24:42.666Z,943.16
2019-02-07T00:25:46.075Z,943.16
2019-02-07T00:26:54.164Z,943.14
2019-02-07T00:28:02.192Z,943.18
2019-02-07T00:29:10.263Z,943.18
2019-02-07T00:30:18.360Z,943.18
2019-02-07T00:31:26.360Z,943.21
2019-02-07T00:32:34.426Z,943.20
2019-02-07T00:33:42.475Z,943.24
2019-02-07T00:34:50.615Z,943.25
2019-02-07T00:35:58.642Z,943.24
2019-02-07T00:37:06.646Z,943.26
2019-02-07T00:38:14.685Z,943.25
2019-02-07T00:39:22.837Z,943.25
2019-02-07T00:40:30.912Z,943.16
2019-02-07T00:41:38.861Z,943.18
2019-02-07T00:42:46.906Z,943.17
2019-02-07T00:43:54.955Z,943.20
2019-02-07T00:45:03.048Z,943.23
2019-02-07T00:46:11.069Z,943.22
2019-02-07T00:47:19.118Z,943.16
2019-02-07T00:48:27.171Z,943.15
2019-02-07T00:49:35.218Z,943.17
2019-02-07T00:50:43.375Z,943.10
2019-02-07T00:51:51.326Z,943.09
2019-02-07T00:52:59.388Z,943.13
2019-02-07T00:54:07.439Z,943.07
2019-02-07T00:55:15.630Z,943.03
2019-02-07T00:56:23.540Z,942.98
2019-02-07T00:57:31.587Z,942.99
2019-02-07T00:58:39.675Z,943.01
2019-02-07T00:59:47.698Z,942.99
2019-02-07T01:00:55.852Z,943.03
2019-02-07T01:02:03.817Z,943.00
2019-02-07T01:03:11.845Z,942.94
2019-02-07T01:04:19.914Z,942.92
2019-02-07T01:05:28.074Z,942.94
2019-02-07T01:06:36.019Z,942.96
2019-02-07T01:07:44.087Z,942.89
2019-02-07T01:08:52.119Z,942.87
2019-02-07T01:10:00.200Z,942.85
2019-02-07T01:11:08.348Z,942.81
2019-02-07T01:12:16.288Z,942.82
2019-02-07T01:13:24.360Z,942.78
2019-02-07T01:14:32.377Z,942.74
2019-02-07T01:15:40.544Z,942.71
2019-02-07T01:16:48.505Z,942.64
2019-02-07T01:17:56.562Z,942.66
2019-02-07T01:19:04.617Z,942.69
2019-02-07T01:20:12.666Z,942.67
2019-02-07T01:21:20.762Z,942.63
2019-02-07T01:22:28.770Z,942.62
2019-02-07T01:23:36.834Z,942.59
2019-02-07T01:24:44.887Z,942.62
2019-02-07T01:25:52.980Z,942.62
2019-02-07T01:27:01.088Z,942.61
2019-02-07T01:28:09.053Z,942.58
2019-02-07T01:29:17.085Z,942.56
2019-02-07T01:30:25.147Z,942.60
2019-02-07T01:31:33.256Z,942.63
2019-02-07T01:32:41.251Z,942.60
2019-02-07T01:33:49.306Z,942.59
2019-02-07T01:34:57.351Z,942.59
2019-02-07T01:36:05.460Z,942.56
2019-02-07T01:37:13.467Z,942.58
2019-02-07T01:38:21.521Z,942.59
2019-02-07T01:39:29.572Z,942.58
2019-02-07T01:40:37.629Z,942.55
2019-02-07T01:41:45.762Z,942.54
2019-02-07T01:42:55.675Z,942.51
2019-02-07T01:44:01.779Z,942.49
2019-02-07T01:45:12.905Z,942.45
2019-02-07T01:46:17.938Z,942.44
2019-02-07T01:47:25.946Z,942.45
2019-02-07T01:48:34.012Z,942.43
2019-02-07T01:49:42.035Z,942.45
2019-02-07T01:50:50.106Z,942.39
2019-02-07T01:51:58.171Z,942.44
2019-02-07T01:53:06.217Z,942.39
2019-02-07T01:54:14.256Z,942.46
2019-02-07T01:55:22.308Z,942.45
2019-02-07T01:56:30.422Z,942.44
2019-02-07T01:57:38.482Z,942.40
2019-02-07T01:58:46.495Z,942.42
2019-02-07T01:59:54.523Z,942.31
2019-02-07T02:01:02.583Z,942.31
2019-02-07T02:02:10.649Z,942.27
2019-02-07T02:03:18.694Z,942.21
2019-02-07T02:04:26.762Z,942.20
2019-02-07T02:05:34.808Z,942.15
2019-02-07T02:06:42.908Z,942.16
2019-02-07T02:07:50.916Z,942.14
2019-02-07T02:08:58.974Z,942.20
2019-02-07T02:10:07.007Z,942.17
2019-02-07T02:11:15.159Z,942.11
2019-02-07T02:12:23.110Z,942.11
2019-02-07T02:13:31.168Z,942.13
2019-02-07T02:14:39.237Z,942.20
2019-02-07T02:15:47.288Z,942.15
2019-02-07T02:16:55.436Z,942.11
2019-02-07T02:18:03.384Z,942.07
2019-02-07T02:19:11.429Z,942.10
2019-02-07T02:20:19.499Z,942.09
2019-02-07T02:21:27.686Z,942.10
2019-02-07T02:22:35.634Z,942.10
2019-02-07T02:23:43.654Z,942.12
2019-02-07T02:24:51.674Z,942.11
2019-02-07T02:25:59.745Z,942.12
2019-02-07T02:27:07.846Z,942.12
2019-02-07T02:28:15.973Z,942.09
2019-02-07T02:29:23.926Z,942.04
2019-02-07T02:30:31.955Z,942.06
2019-02-07T02:31:40.084Z,942.06
2019-02-07T02:32:48.077Z,942.04
2019-02-07T02:33:56.131Z,942.03
2019-02-07T02:35:04.183Z,942.00
2019-02-07T02:36:12.236Z,941.94
2019-02-07T02:37:20.336Z,941.94
2019-02-07T02:38:28.350Z,941.97
2019-02-07T02:39:36.401Z,942.00
2019-02-07T02:40:44.461Z,942.06
2019-02-07T02:41:52.586Z,941.97
2019-02-07T02:43:00.635Z,941.94
2019-02-07T02:44:08.602Z,941.94
2019-02-07T02:45:16.673Z,941.95
2019-02-07T02:46:24.706Z,941.90
2019-02-07T02:47:32.828Z,941.88
2019-02-07T02:48:40.815Z,941.88
2019-02-07T02:49:48.885Z,941.94
2019-02-07T02:50:56.938Z,941.95
2019-02-07T02:52:05.029Z,941.94
2019-02-07T02:53:13.043Z,941.91
2019-02-07T02:54:21.076Z,941.87
2019-02-07T02:55:29.135Z,941.87
2019-02-07T02:56:37.202Z,941.87
2019-02-07T02:57:45.367Z,941.89
2019-02-07T02:58:53.306Z,941.84
2019-02-07T03:00:01.338Z,941.77
2019-02-07T03:01:09.440Z,941.82
2019-02-07T03:02:17.538Z,941.78
2019-02-07T03:03:25.505Z,941.74
2019-02-07T03:04:33.566Z,941.69
2019-02-07T03:05:41.582Z,941.71
2019-02-07T03:06:49.750Z,941.71
2019-02-07T03:07:57.780Z,941.67
2019-02-07T03:09:05.780Z,941.67
2019-02-07T03:10:13.845Z,941.69
2019-02-07T03:11:21.875Z,941.63
2019-02-07T03:12:30.036Z,941.68
2019-02-07T03:13:37.991Z,941.65
2019-02-07T03:14:46.042Z,941.65
2019-02-07T03:15:54.110Z,941.61
2019-02-07T03:17:02.134Z,941.61
2019-02-07T03:18:10.277Z,941.57
2019-02-07T03:19:18.268Z,941.58
2019-02-07T03:20:26.304Z,941.54
2019-02-07T03:21:34.365Z,941.52
2019-02-07T03:22:42.463Z,941.56
2019-02-07T03:23:50.472Z,941.55
2019-02-07T03:24:58.530Z,941.58
2019-02-07T03:26:06.579Z,941.55
2019-02-07T03:27:14.639Z,941.49
2019-02-07T03:28:22.786Z,941.48
2019-02-07T03:29:30.730Z,941.49
2019-02-07T03:30:38.801Z,941.43
2019-02-07T03:31:46.836Z,941.48
2019-02-07T03:32:54.989Z,941.48
2019-02-07T03:34:02.949Z,941.47
2019-02-07T03:35:11.003Z,941.53
2019-02-07T03:36:19.058Z,941.46
2019-02-07T03:37:27.114Z,941.41
2019-02-07T03:38:35.155Z,941.40
2019-02-07T03:39:43.217Z,941.40
2019-02-07T03:40:51.265Z,941.38
2019-02-07T03:41:59.315Z,941.39
2019-02-07T03:43:07.430Z,941.37
2019-02-07T03:44:15.529Z,941.42
2019-02-07T03:45:23.497Z,941.43
2019-02-07T03:46:31.522Z,941.43
2019-02-07T03:47:39.602Z,941.45
2019-02-07T03:48:47.697Z,941.44
2019-02-07T03:49:55.691Z,941.43
2019-02-07T03:51:03.756Z,941.40
2019-02-07T03:52:11.782Z,941.39
2019-02-07T03:53:19.914Z,941.38
2019-02-07T03:54:27.913Z,941.39
2019-02-07T03:55:35.966Z,941.36
2019-02-07T03:56:44.015Z,941.34
2019-02-07T03:57:52.051Z,941.33
2019-02-07T03:59:00.143Z,941.31
2019-02-07T04:00:08.278Z,941.29
2019-02-07T04:01:16.239Z,941.31
2019-02-07T04:02:24.278Z,941.26
2019-02-07T04:03:32.393Z,941.25
2019-02-07T04:04:40.414Z,941.27
2019-02-07T04:05:48.451Z,941.28
2019-02-07T04:06:56.486Z,941.29
2019-02-07T04:08:04.558Z,941.28
2019-02-07T04:09:12.599Z,941.30
2019-02-07T04:10:20.663Z,941.28
2019-02-07T04:11:28.715Z,941.32
2019-02-07T04:12:36.785Z,941.28
2019-02-07T04:13:44.867Z,941.31
2019-02-07T04:14:52.866Z,941.25
2019-02-07T04:16:01.019Z,941.27
2019-02-07T04:17:08.988Z,941.32
2019-02-07T04:18:17.119Z,941.29
2019-02-07T04:19:25.089Z,941.28
2019-02-07T04:20:33.138Z,941.27
2019-02-07T04:21:41.190Z,941.26
2019-02-07T04:22:49.234Z,941.29
2019-02-07T04:23:57.346Z,941.24
2019-02-07T04:25:05.344Z,941.25
2019-02-07T04:26:13.394Z,941.22
2019-02-07T04:27:21.449Z,941.23
2019-02-07T04:28:29.590Z,941.22
2019-02-07T04:29:37.564Z,941.23
2019-02-07T04:30:45.613Z,941.21
2019-02-07T04:31:53.762Z,941.23
2019-02-07T04:33:01.705Z,941.18
2019-02-07T04:34:09.836Z,941.25
2019-02-07T04:35:17.840Z,941.26
2019-02-07T04:36:25.889Z,941.26
2019-02-07T04:37:33.942Z,941.24
2019-02-07T04:38:42.074Z,941.22
2019-02-07T04:39:50.051Z,941.22
2019-02-07T04:40:58.125Z,941.21
2019-02-07T04:42:06.149Z,941.21
2019-02-07T04:43:14.190Z,941.17
2019-02-07T04:44:22.302Z,941.20
2019-02-07T04:45:30.290Z,941.18
2019-02-07T04:46:38.348Z,941.18
2019-02-07T04:47:46.460Z,941.19
2019-02-07T04:48:54.607Z,941.19
2019-02-07T04:50:02.531Z,941.14
2019-02-07T04:51:10.573Z,941.16
2019-02-07T04:52:18.638Z,941.18
2019-02-07T04:53:26.684Z,941.21
2019-02-07T04:54:34.797Z,941.17
2019-02-07T04:55:42.807Z,941.19
2019-02-07T04:56:50.846Z,941.15
2019-02-07T04:57:58.911Z,941.13
2019-02-07T04:59:07.047Z,941.14
2019-02-07T05:00:15.010Z,941.14
2019-02-07T05:01:23.061Z,941.14
2019-02-07T05:02:31.201Z,941.12
2019-02-07T05:03:39.185Z,941.12
2019-02-07T05:04:47.268Z,941.07
2019-02-07T05:05:55.260Z,941.06
2019-02-07T05:07:03.328Z,941.06
2019-02-07T05:08:11.361Z,941.09
2019-02-07T05:09:19.534Z,941.06
2019-02-07T05:10:27.485Z,941.04
2019-02-07T05:11:35.531Z,941.02
2019-02-07T05:12:43.588Z,941.04
2019-02-07T05:13:51.641Z,941.02
2019-02-07T05:14:59.796Z,940.99
2019-02-07T05:16:07.764Z,941.00
2019-02-07T05:17:15.810Z,941.05
2019-02-07T05:18:23.906Z,941.02
2019-02-07T05:19:31.941Z,941.05
2019-02-07T05:20:39.962Z,941.07
2019-02-07T05:21:48.017Z,941.02
2019-02-07T05:22:56.079Z,941.05
2019-02-07T05:24:04.120Z,941.02
2019-02-07T05:25:12.201Z,940.97
2019-02-07T05:26:20.367Z,940.99
2019-02-07T05:27:28.316Z,941.03
2019-02-07T05:28:36.349Z,940.99
2019-02-07T05:29:44.434Z,941.00
2019-02-07T05:30:52.425Z,940.94
2019-02-07T05:32:00.502Z,940.96
2019-02-07T05:33:08.593Z,941.00
2019-02-07T05:34:16.612Z,940.96
2019-02-07T05:35:24.752Z,940.93
2019-02-07T05:36:32.706Z,940.95
2019-02-07T05:37:40.746Z,940.99
2019-02-07T05:38:48.825Z,941.02
2019-02-07T05:39:56.926Z,941.00
2019-02-07T05:41:04.915Z,940.95
2019-02-07T05:42:12.998Z,940.98
2019-02-07T05:43:21.028Z,941.07
2019-02-07T05:44:29.071Z,941.05
2019-02-07T05:45:37.200Z,941.02
2019-02-07T05:46:50.845Z,941.01
2019-02-07T05:47:53.302Z,941.08
2019-02-07T05:49:01.281Z,941.00
2019-02-07T05:50:09.448Z,941.05
2019-02-07T05:51:17.405Z,941.01
2019-02-07T05:52:25.451Z,941.03
2019-02-07T05:53:33.526Z,940.97
2019-02-07T05:54:41.552Z,940.95
2019-02-07T05:55:49.678Z,940.98
2019-02-07T05:56:57.694Z,940.99
2019-02-07T05:58:05.708Z,940.95
2019-02-07T05:59:13.778Z,940.95
2019-02-07T06:00:21.911Z,941.00
2019-02-07T06:01:29.898Z,941.02
2019-02-07T06:02:38.028Z,940.98
2019-02-07T06:03:45.989Z,940.97
2019-02-07T06:04:54.025Z,940.99
2019-02-07T06:06:02.170Z,941.04
2019-02-07T06:07:10.187Z,941.00
2019-02-07T06:08:18.191Z,940.97
2019-02-07T06:09:26.257Z,940.95
2019-02-07T06:10:34.370Z,941.00
2019-02-07T06:11:42.386Z,941.02
2019-02-07T06:12:50.412Z,940.99
2019-02-07T06:13:58.481Z,940.98
2019-02-07T06:15:06.548Z,940.95
2019-02-07T06:16:14.580Z,940.98
2019-02-07T06:17:22.630Z,940.95
2019-02-07T06:18:30.782Z,940.96
2019-02-07T06:19:38.747Z,940.96
2019-02-07T06:20:46.858Z,940.93
2019-02-07T06:21:54.851Z,940.98
2019-02-07T06:23:02.885Z,941.00
2019-02-07T06:24:10.968Z,940.95
2019-02-07T06:25:19.044Z,940.93
2019-02-07T06:26:27.062Z,940.94
2019-02-07T06:27:35.164Z,940.96
2019-02-07T06:28:43.165Z,940.97
2019-02-07T06:29:51.199Z,940.94
2019-02-07T06:30:59.323Z,940.98
2019-02-07T06:32:07.315Z,940.92
2019-02-07T06:33:15.384Z,940.97
2019-02-07T06:34:28.843Z,940.93
2019-02-07T06:35:31.483Z,941.01
2019-02-07T06:36:39.531Z,941.09
2019-02-07T06:37:47.588Z,941.08
2019-02-07T06:38:55.655Z,941.06
2019-02-07T06:40:03.711Z,941.09
2019-02-07T06:41:11.779Z,941.12
2019-02-07T06:42:19.804Z,941.16
2019-02-07T06:43:27.874Z,941.15
2019-02-07T06:44:35.923Z,941.15
2019-02-07T06:45:44.085Z,941.13
2019-02-07T06:46:51.993Z,941.15
2019-02-07T06:48:00.091Z,941.12
2019-02-07T06:49:08.121Z,941.09
2019-02-07T06:50:16.263Z,941.10
2019-02-07T06:51:24.290Z,941.11
2019-02-07T06:52:32.289Z,941.09
2019-02-07T06:53:40.343Z,941.13
2019-02-07T06:54:48.395Z,941.09
2019-02-07T06:55:56.901Z,941.13
2019-02-07T06:57:04.515Z,941.12
2019-02-07T06:58:12.548Z,941.12
2019-02-07T06:59:20.615Z,941.14
2019-02-07T07:00:28.666Z,941.13
2019-02-07T07:01:36.766Z,941.12
2019-02-07T07:02:44.786Z,941.10
2019-02-07T07:03:52.840Z,941.10
2019-02-07T07:05:00.888Z,941.13
2019-02-07T07:06:09.024Z,941.05
2019-02-07T07:07:16.989Z,941.07
2019-02-07T07:08:25.075Z,941.10
2019-02-07T07:09:33.089Z,941.09
2019-02-07T07:10:41.150Z,941.09
2019-02-07T07:11:49.292Z,941.11
2019-02-07T07:12:57.301Z,941.12
2019-02-07T07:14:05.286Z,941.15
2019-02-07T07:15:13.357Z,941.13
2019-02-07T07:16:21.446Z,941.16
2019-02-07T07:17:29.495Z,941.12
2019-02-07T07:18:37.525Z,941.17
2019-02-07T07:19:45.582Z,941.12
2019-02-07T07:20:53.620Z,941.17
2019-02-07T07:22:01.766Z,941.17
2019-02-07T07:23:09.746Z,941.17
2019-02-07T07:24:17.794Z,941.18
2019-02-07T07:25:25.826Z,941.19
2019-02-07T07:26:33.957Z,941.20
2019-02-07T07:27:41.966Z,941.23
2019-02-07T07:28:50.016Z,941.19
2019-02-07T07:29:58.057Z,941.19
2019-02-07T07:31:06.110Z,941.25
2019-02-07T07:32:16.332Z,941.21
2019-02-07T07:33:22.201Z,941.18
2019-02-07T07:34:30.287Z,941.17
2019-02-07T07:35:38.327Z,941.20
2019-02-07T07:36:47.464Z,941.18
2019-02-07T07:37:54.931Z,941.19
2019-02-07T07:39:02.484Z,941.18
2019-02-07T07:40:10.560Z,941.21
2019-02-07T07:41:19.091Z,941.19
2019-02-07T07:42:27.794Z,941.21
2019-02-07T07:43:35.300Z,941.17
2019-02-07T07:44:43.358Z,941.17
2019-02-07T07:45:51.484Z,941.15
2019-02-07T07:46:58.972Z,941.19
2019-02-07T07:48:06.919Z,941.18
2019-02-07T07:49:15.002Z,941.15
2019-02-07T07:50:23.039Z,941.17
2019-02-07T07:51:31.085Z,941.15
2019-02-07T07:52:39.241Z,941.15
2019-02-07T07:53:47.190Z,941.18
2019-02-07T07:54:55.262Z,941.18
2019-02-07T07:56:03.292Z,941.20
2019-02-07T07:57:11.411Z,941.22
2019-02-07T07:58:19.421Z,941.24
2019-02-07T07:59:27.477Z,941.24
2019-02-07T08:00:35.532Z,941.21
2019-02-07T08:01:43.584Z,941.22
2019-02-07T08:02:51.684Z,941.19
2019-02-07T08:03:59.695Z,941.22
2019-02-07T08:05:07.751Z,941.20
2019-02-07T08:06:15.796Z,941.19
2019-02-07T08:07:24.210Z,941.20
2019-02-07T08:08:32.200Z,941.20
2019-02-07T08:09:39.966Z,941.19
2019-02-07T08:10:48.017Z,941.19
2019-02-07T08:11:56.405Z,941.16
2019-02-07T08:13:04.750Z,941.12
2019-02-07T08:14:12.689Z,941.13
2019-02-07T08:15:20.226Z,941.11
2019-02-07T08:16:28.381Z,941.15
2019-02-07T08:17:46.801Z,941.11
2019-02-07T08:18:44.397Z,941.10
2019-02-07T08:19:52.462Z,941.13
2019-02-07T08:21:00.519Z,941.14
2019-02-07T08:22:08.555Z,941.12
2019-02-07T08:23:16.676Z,941.10
2019-02-07T08:24:24.674Z,941.07
2019-02-07T08:25:32.716Z,941.08
2019-02-07T08:26:40.814Z,941.07
2019-02-07T08:27:48.944Z,941.09
2019-02-07T08:28:56.896Z,941.11
2019-02-07T08:30:05.314Z,941.05
2019-02-07T08:31:13.426Z,941.10
2019-02-07T08:32:21.342Z,941.07
2019-02-07T08:33:29.332Z,941.05
2019-02-07T08:34:37.177Z,941.02
2019-02-07T08:35:45.244Z,941.01
2019-02-07T08:36:53.868Z,941.02
2019-02-07T08:38:02.155Z,941.01
2019-02-07T08:39:09.487Z,941.04
2019-02-07T08:40:17.503Z,941.08
2019-02-07T08:41:25.550Z,941.10
2019-02-07T08:42:33.610Z,941.16
2019-02-07T08:43:41.847Z,941.13
2019-02-07T08:44:49.666Z,941.09
2019-02-07T08:45:57.731Z,941.07
2019-02-07T08:47:05.821Z,941.09
2019-02-07T08:48:13.887Z,941.17
2019-02-07T08:49:21.894Z,941.08
2019-02-07T08:50:29.930Z,941.08
2019-02-07T08:51:37.992Z,941.09
2019-02-07T08:52:46.165Z,941.07
2019-02-07T08:53:54.091Z,941.12
2019-02-07T08:55:02.234Z,941.11
2019-02-07T08:56:10.214Z,941.09
2019-02-07T08:57:18.273Z,941.03
2019-02-07T08:58:26.375Z,941.03
2019-02-07T08:59:34.389Z,941.08
2019-02-07T09:00:43.477Z,941.09
2019-02-07T09:01:50.518Z,941.04
2019-02-07T09:02:58.722Z,941.06
2019-02-07T09:04:06.623Z,941.03
2019-02-07T09:05:14.665Z,941.04
2019-02-07T09:06:22.745Z,941.03
2019-02-07T09:07:32.143Z,941.02
2019-02-07T09:08:38.890Z,940.98
2019-02-07T09:09:46.893Z,940.98
2019-02-07T09:11:00.753Z,940.91
2019-02-07T09:12:03.002Z,940.91
2019-02-07T09:13:11.173Z,940.92
2019-02-07T09:14:19.118Z,940.90
2019-02-07T09:15:27.165Z,940.86
2019-02-07T09:16:35.214Z,940.87
2019-02-07T09:17:43.297Z,940.86
2019-02-07T09:18:51.418Z,940.84
2019-02-07T09:19:59.388Z,940.81
2019-02-07T09:21:07.449Z,940.87
2019-02-07T09:22:15.502Z,940.84
2019-02-07T09:23:23.605Z,940.89
2019-02-07T09:24:31.620Z,940.92
2019-02-07T09:25:39.689Z,940.94
2019-02-07T09:26:48.347Z,940.92
2019-02-07T09:27:55.883Z,940.97
2019-02-07T09:29:04.135Z,940.97
2019-02-07T09:30:11.912Z,940.93
2019-02-07T09:31:19.983Z,940.93
2019-02-07T09:32:28.027Z,940.92
2019-02-07T09:33:36.176Z,940.89
2019-02-07T09:34:44.131Z,940.87
2019-02-07T09:35:52.161Z,940.87
2019-02-07T09:37:00.239Z,940.85
2019-02-07T09:38:08.290Z,940.90
2019-02-07T09:39:16.420Z,940.91
2019-02-07T09:40:24.412Z,940.93
2019-02-07T09:41:32.769Z,940.93
2019-02-07T09:42:40.563Z,940.96
2019-02-07T09:43:48.619Z,940.99
2019-02-07T09:44:56.644Z,940.97
2019-02-07T09:46:04.720Z,941.00
2019-02-07T09:47:12.763Z,941.00
2019-02-07T09:48:21.843Z,940.98
2019-02-07T09:49:28.974Z,940.98
2019-02-07T09:50:36.919Z,940.97
2019-02-07T09:51:45.034Z,940.90
2019-02-07T09:52:53.037Z,940.90
2019-02-07T09:54:01.140Z,940.90
2019-02-07T09:55:09.157Z,940.89
2019-02-07T09:56:17.203Z,940.87
2019-02-07T09:57:25.288Z,940.86
2019-02-07T09:58:33.316Z,940.88
2019-02-07T09:59:41.408Z,940.91
2019-02-07T10:00:49.443Z,940.87
2019-02-07T10:01:57.488Z,940.89
2019-02-07T10:03:05.556Z,940.97
2019-02-07T10:04:13.714Z,940.98
2019-02-07T10:05:21.665Z,940.98
2019-02-07T10:06:30.309Z,941.00
2019-02-07T10:07:37.785Z,941.00
2019-02-07T10:08:45.841Z,941.00
2019-02-07T10:09:53.940Z,940.97
2019-02-07T10:11:01.931Z,940.94
2019-02-07T10:12:10.040Z,940.88
2019-02-07T10:13:18.165Z,940.88
2019-02-07T10:14:26.180Z,940.91
2019-02-07T10:15:34.200Z,940.91
2019-02-07T10:16:43.706Z,940.91
2019-02-07T10:17:50.314Z,940.91
2019-02-07T10:18:58.363Z,940.96
2019-02-07T10:20:06.396Z,940.98
2019-02-07T10:21:14.487Z,940.94
2019-02-07T10:22:22.543Z,940.95
2019-02-07T10:23:30.600Z,940.96
2019-02-07T10:24:38.839Z,940.92
2019-02-07T10:25:46.736Z,940.93
2019-02-07T10:26:54.955Z,940.91
2019-02-07T10:28:02.821Z,940.92
2019-02-07T10:29:10.981Z,940.98
2019-02-07T10:30:19.126Z,940.92
2019-02-07T10:31:27.003Z,940.93
2019-02-07T10:32:35.052Z,940.83
2019-02-07T10:33:43.112Z,940.84
2019-02-07T10:34:51.214Z,940.84
2019-02-07T10:35:59.216Z,940.85
2019-02-07T10:37:07.295Z,940.87
2019-02-07T10:38:15.339Z,940.84
2019-02-07T10:39:23.409Z,940.83
2019-02-07T10:40:31.453Z,940.84
2019-02-07T10:41:39.520Z,940.81
2019-02-07T10:42:47.570Z,940.73
2019-02-07T10:43:55.639Z,940.72
2019-02-07T10:45:03.788Z,940.76
2019-02-07T10:46:11.755Z,940.73
2019-02-07T10:47:19.795Z,940.74
2019-02-07T10:48:27.864Z,940.66
2019-02-07T10:49:36.023Z,940.67
2019-02-07T10:50:43.999Z,940.65
2019-02-07T10:51:52.029Z,940.64
2019-02-07T10:53:00.102Z,940.63
2019-02-07T10:54:08.160Z,940.66
2019-02-07T10:55:16.267Z,940.65
2019-02-07T10:56:24.278Z,940.64
2019-02-07T10:57:32.325Z,940.65
2019-02-07T10:58:40.393Z,940.64
2019-02-07T10:59:48.557Z,940.60
2019-02-07T11:00:56.582Z,940.62
2019-02-07T11:02:04.563Z,940.64
2019-02-07T11:03:12.622Z,940.60
2019-02-07T11:04:20.679Z,940.61
2019-02-07T11:05:28.846Z,940.54
2019-02-07T11:06:36.824Z,940.58
2019-02-07T11:07:44.863Z,940.53
2019-02-07T11:08:52.908Z,940.50
2019-02-07T11:10:01.010Z,940.53
2019-02-07T11:11:09.021Z,940.50
2019-02-07T11:12:17.086Z,940.46
2019-02-07T11:13:25.145Z,940.47
2019-02-07T11:14:33.184Z,940.47
2019-02-07T11:15:41.426Z,940.49
2019-02-07T11:16:49.314Z,940.45
2019-02-07T11:17:57.372Z,940.46
2019-02-07T11:19:05.441Z,940.49
2019-02-07T11:20:13.549Z,940.48
2019-02-07T11:21:21.533Z,940.43
2019-02-07T11:22:29.596Z,940.45
2019-02-07T11:23:38.322Z,940.38
2019-02-07T11:24:45.719Z,940.46
2019-02-07T11:25:53.846Z,940.39
2019-02-07T11:27:01.828Z,940.33
2019-02-07T11:28:10.833Z,940.42
2019-02-07T11:29:17.990Z,940.35
2019-02-07T11:30:26.062Z,940.34
2019-02-07T11:31:34.166Z,940.35
2019-02-07T11:32:42.114Z,940.37
2019-02-07T11:33:50.197Z,940.41
2019-02-07T11:34:58.278Z,940.40
2019-02-07T11:36:06.373Z,940.37
2019-02-07T11:37:14.352Z,940.42
2019-02-07T11:38:22.399Z,940.35
2019-02-07T11:39:30.478Z,940.36
2019-02-07T11:40:41.189Z,940.37
2019-02-07T11:41:46.705Z,940.36
2019-02-07T11:42:54.658Z,940.37
2019-02-07T11:44:02.707Z,940.35
2019-02-07T11:45:10.764Z,940.40
2019-02-07T11:46:18.934Z,940.40
2019-02-07T11:47:26.874Z,940.36
2019-02-07T11:48:34.948Z,940.38
2019-02-07T11:49:42.993Z,940.33
2019-02-07T11:50:51.151Z,940.30
2019-02-07T11:51:59.119Z,940.30
2019-02-07T11:53:07.176Z,940.31
2019-02-07T11:54:15.223Z,940.27
2019-02-07T11:55:25.030Z,940.25
2019-02-07T11:56:31.427Z,940.22
2019-02-07T11:57:39.460Z,940.20
2019-02-07T11:58:47.467Z,940.22
2019-02-07T11:59:55.519Z,940.22
2019-02-07T12:01:03.677Z,940.19
2019-02-07T12:02:11.625Z,940.24
2019-02-07T12:03:19.691Z,940.22
2019-02-07T12:04:27.761Z,940.23
2019-02-07T12:05:35.811Z,940.21
2019-02-07T12:06:43.974Z,940.18
2019-02-07T12:07:51.892Z,940.16
2019-02-07T12:08:59.994Z,940.14
2019-02-07T12:10:08.050Z,940.14
2019-02-07T12:11:16.155Z,940.15
2019-02-07T12:12:24.176Z,940.18
2019-02-07T12:13:32.192Z,940.17
2019-02-07T12:14:40.276Z,940.15
2019-02-07T12:15:48.358Z,940.12
2019-02-07T12:16:56.494Z,940.13
2019-02-07T12:18:04.454Z,940.14
2019-02-07T12:19:17.864Z,940.15
2019-02-07T12:20:20.582Z,940.15
2019-02-07T12:21:28.685Z,940.06
2019-02-07T12:22:37.430Z,940.06
2019-02-07T12:23:44.733Z,940.06
2019-02-07T12:24:52.833Z,940.05
2019-02-07T12:26:00.874Z,940.02
2019-02-07T12:27:08.940Z,940.02
2019-02-07T12:28:17.015Z,940.07
2019-02-07T12:29:25.050Z,940.04
2019-02-07T12:30:33.126Z,940.01
2019-02-07T12:31:41.257Z,940.03
2019-02-07T12:32:49.207Z,940.01
2019-02-07T12:33:57.272Z,939.98
2019-02-07T12:35:05.349Z,939.95
2019-02-07T12:36:13.394Z,939.92
2019-02-07T12:37:21.442Z,939.92
2019-02-07T12:38:29.491Z,939.88
2019-02-07T12:39:37.558Z,939.91
2019-02-07T12:40:45.602Z,939.87
2019-02-07T12:41:53.782Z,939.89
2019-02-07T12:43:01.762Z,939.89
2019-02-07T12:44:09.785Z,939.92
2019-02-07T12:45:17.875Z,939.89
2019-02-07T12:46:25.946Z,939.91
2019-02-07T12:47:33.980Z,939.90
2019-02-07T12:48:41.999Z,939.89
2019-02-07T12:49:50.085Z,939.87
2019-02-07T12:50:58.126Z,939.88
2019-02-07T12:52:06.280Z,939.90
2019-02-07T12:53:14.255Z,939.83
2019-02-07T12:54:22.299Z,939.84
2019-02-07T12:55:30.374Z,939.83
2019-02-07T12:56:38.540Z,939.87
2019-02-07T12:57:46.549Z,939.89
2019-02-07T12:58:54.556Z,939.85
2019-02-07T13:00:02.592Z,939.87
2019-02-07T13:01:10.669Z,939.84
2019-02-07T13:02:18.779Z,939.90
2019-02-07T13:03:26.790Z,939.90
2019-02-07T13:04:34.850Z,939.88
2019-02-07T13:05:42.939Z,939.88
2019-02-07T13:06:51.051Z,939.89
2019-02-07T13:07:59.022Z,939.92
2019-02-07T13:09:07.115Z,939.92
2019-02-07T13:10:15.141Z,939.93
2019-02-07T13:11:23.210Z,939.95
2019-02-07T13:12:31.374Z,939.91
2019-02-07T13:13:39.312Z,939.87
2019-02-07T13:14:47.390Z,939.87
2019-02-07T13:15:55.446Z,939.85
2019-02-07T13:17:03.574Z,939.87
2019-02-07T13:18:11.537Z,939.87
2019-02-07T13:19:19.609Z,939.87
2019-02-07T13:20:27.679Z,939.87
2019-02-07T13:21:35.729Z,939.85
2019-02-07T13:22:43.844Z,939.88
2019-02-07T13:23:51.841Z,939.90
2019-02-07T13:24:59.899Z,939.87
2019-02-07T13:26:07.998Z,939.88
2019-02-07T13:27:16.069Z,939.84
2019-02-07T13:28:24.181Z,939.87
2019-02-07T13:29:32.124Z,939.96
2019-02-07T13:30:40.225Z,939.93
2019-02-07T13:31:48.313Z,939.96
2019-02-07T13:32:56.381Z,939.95
2019-02-07T13:34:04.374Z,939.96
2019-02-07T13:35:12.494Z,939.95
2019-02-07T13:36:20.498Z,939.94
2019-02-07T13:37:28.646Z,939.97
2019-02-07T13:38:36.599Z,939.97
2019-02-07T13:39:44.669Z,939.98
2019-02-07T13:40:52.711Z,939.94
2019-02-07T13:42:00.789Z,940.02
2019-02-07T13:43:08.945Z,939.96
2019-02-07T13:44:16.987Z,939.94
2019-02-07T13:45:24.949Z,939.94
2019-02-07T13:46:33.014Z,939.91
2019-02-07T13:47:41.170Z,939.97
2019-02-07T13:48:49.150Z,939.96
2019-02-07T13:49:57.186Z,939.96
2019-02-07T13:51:05.253Z,939.97
2019-02-07T13:52:13.292Z,939.98
2019-02-07T13:53:21.432Z,940.00
2019-02-07T13:54:29.417Z,939.97
2019-02-07T13:55:37.564Z,939.97
2019-02-07T13:56:45.576Z,939.94
2019-02-07T13:57:53.640Z,939.94
2019-02-07T13:59:01.700Z,939.94
2019-02-07T14:00:09.741Z,939.93
2019-02-07T14:01:17.776Z,939.98
2019-02-07T14:02:25.822Z,939.96
2019-02-07T14:03:33.980Z,940.01
2019-02-07T14:04:41.940Z,940.05
2019-02-07T14:05:49.998Z,940.04
2019-02-07T14:06:58.168Z,940.11
2019-02-07T14:08:06.178Z,940.12
2019-02-07T14:09:14.185Z,940.06